Sonic Adventure (DX): Time Rankings

Records: Times | Rings | Scores | Races | Bosses | Freestyle
Leaders: Times | Rings | Scores | Races | Bosses | Freestyle | Overall
Rank Player Percent Points Date
1 Sonicspeedruner 99.0% 48 03-30-15
2 Gamepro011 98.6% 72 03-30-15
3 Jawzun 96.2% 192 03-30-15
4 Dashjump 94.0% 310 03-30-15
5 DarkPolarNight 93.4% 341 03-30-15
6 THC98 92.1% 407 03-30-15
7 F-Man 91.6% 431 03-30-15
8 ike6252 90.3% 497 03-30-15
9 Avento128bits 90.2% 506 03-30-15
10 francisco 89.9% 518 03-30-15
11 DarkspinesSonic 89.6% 536 03-30-15
12 Marth 89.4% 547 03-30-15
13 frankoredstrato 88.1% 612 03-30-15
14 Paragod 84.9% 777 03-30-15
15 HyperSonic7701 84.8% 783 03-30-15
16 chainchumper 84.7% 790 03-30-15
17 drminus 83.3% 861 03-30-15
18 InferSaime 81.8% 937 03-30-15
19 TheRealShadnic 81.7% 946 03-30-15
20 Stefan 80.2% 1020 03-30-15
21 Redd 79.7% 1046 03-30-15
22 PfoSonic 79.6% 1054 03-30-15
23 Coolfansonic 78.0% 1138 03-30-15
24 bertin 77.8% 1148 03-30-15
25 yoshifan 77.3% 1173 03-30-15
26 xXMegaManXx 77.0% 1189 03-30-15
27 Dave Cramer 75.5% 1263 03-30-15
28 RPGnutter 75.0% 1289 03-30-15
29 Cybrax 73.4% 1374 03-30-15
30 sonicam 73.3% 1377 03-30-15
31 Ring Rush 70.5% 1522 03-30-15
32 mike89 69.7% 1565 03-30-15
33 NintenDan 69.5% 1576 03-30-15
34 SkyLights 65.7% 1774 03-30-15
35 Combo 64.1% 1857 03-30-15
36 SADXTryHard 62.2% 1956 03-30-15
37 P1 Pause 61.3% 2002 03-30-15
38 Nimrod 60.4% 2045 03-30-15
39 Game_Complete 59.4% 2098 03-30-15
40 Groudon199 59.3% 2104 03-30-15
41 Shadow Jacky 58.6% 2141 03-30-15
42 Dawid8404 58.4% 2149 03-30-15
43 VMU Player Banned 57.8% 2180 03-30-15
44 Thorn 57.2% 2211 03-30-15
45 Parax 56.1% 2271 03-30-15
46 SB737 56.0% 2272 03-30-15
47 The Knuckles Chao 56.0% 2273 03-30-15
48 SadisticMystic 55.8% 2286 03-30-15
49 Chao_Fan 55.6% 2293 03-30-15
50 KinkyCadence 55.3% 2311 03-30-15
51 mauserman 55.1% 2322 03-30-15
52 Mastakirby 54.9% 2330 03-30-15
53 Psyknux 54.7% 2340 03-30-15
54 OmegaDJ 54.7% 2344 03-30-15
55 LittleBigness 54.5% 2351 03-30-15
56 magnum12 53.8% 2390 03-30-15
57 Auriman1 53.7% 2392 03-30-15
58 Turbos 53.2% 2418 03-30-15
59 GreatStar 52.8% 2438 03-30-15
60 GerbilSoft 52.8% 2441 03-30-15
61 Webber3000 51.9% 2487 03-30-15
62 Hipertails12 51.7% 2496 03-30-15
63 James_Bertolli 48.7% 2652 03-30-15
64 Cream147 48.2% 2679 03-30-15
65 Skylace 47.9% 2692 03-30-15
66 welldooder64 47.7% 2703 03-30-15
67 Diamond 47.6% 2707 03-30-15
68 Omega Rafael Santos 47.6% 2710 03-30-15
69 Quartz 47.3% 2725 03-30-15
70 Psymar 47.1% 2737 03-30-15
71 SonicWinDX 46.2% 2780 03-30-15
72 teamblackarms 45.8% 2804 03-30-15
73 buddychaos0415 45.2% 2834 03-30-15
74 SilverSonic 45.0% 2845 03-30-15
75 itsPersonnal 44.3% 2879 03-30-15
76 WeegeeZV 44.3% 2880 03-30-15
77 Andrea Ritsu 44.1% 2889 03-30-15
78 SilvertheAlmighty 43.8% 2904 03-30-15
79 metanightmare22 42.9% 2951 03-30-15
80 lordmetalsonic 40.9% 3054 03-30-15
81 Arch 40.5% 3079 03-30-15
82 Termon 40.3% 3087 03-30-15
83 videogamemaster777 39.7% 3119 03-30-15
84 supersonicfan 39.3% 3141 03-30-15
85 Kanimayo_Jp 39.1% 3149 03-30-15
86 paulie9990 38.3% 3191 03-30-15
87 LilZero 38.2% 3195 03-30-15
88 FuzZerd 38.1% 3203 03-30-15
89 Don 37.5% 3232 03-30-15
90 eggFL 37.4% 3239 03-30-15
91 a_moustache 37.1% 3251 03-30-15
92 Fr3nZy 36.0% 3309 03-30-15
93 Siavash Tazari 36.0% 3310 03-30-15
94 Cod4Scopes 35.4% 3343 03-30-15
95 f0rever_zer0 34.8% 3370 03-30-15
96 Cyan Ryan 34.2% 3404 03-30-15
97 Austinf 34.1% 3406 03-30-15
98 supersonic465 34.0% 3414 03-30-15
99 Therio 34.0% 3415 03-30-15
100 LinksDarkArrows 33.9% 3419 03-30-15
101 danieldude 33.1% 3457 03-30-15
102 elecmouse101 32.9% 3471 03-30-15
103 Staf 32.7% 3480 03-30-15
104 BrokenArthritis 32.5% 3488 03-30-15
105 MiStEr_ShAoLiN 32.5% 3492 03-30-15
106 Xia 31.4% 3545 03-30-15
107 welshmoose05 30.9% 3572 03-30-15
108 Mcshuggets 30.0% 3618 03-30-15
109 The Great Lord Mick 29.8% 3632 03-30-15
110 Maxinfamily 29.5% 3647 03-30-15
111 joecoolgames 29.4% 3653 03-30-15
112 Aitamen 29.2% 3661 03-30-15
113 videogamer1014 29.1% 3665 03-30-15
114 Matt_TY 29.0% 3672 03-30-15
115 imazor017 28.9% 3677 03-30-15
116 dabestgamer 28.8% 3682 03-30-15
117 SuperSonic101 27.6% 3742 03-30-15
118 Shadowthegreat 27.5% 3750 03-30-15
118 superjupi 27.5% 3750 03-30-15
120 Hunters13 27.3% 3761 03-30-15
121 Rolken 26.9% 3779 03-30-15
122 SaviourDC 26.6% 3798 03-30-15
123 iarebored 26.5% 3803 03-30-15
124 sonamyfan666 26.2% 3814 03-30-15
125 Spinballwizard 26.1% 3820 03-30-15
126 SonicKnuckles 25.8% 3838 03-30-15
127 Drakodan 25.4% 3859 03-30-15
128 EngiNerd 25.0% 3879 03-30-15
129 adf 24.9% 3886 03-30-15
130 Megaman EXE565 24.3% 3913 03-30-15
131 The T 23.8% 3942 03-30-15
132 Platformer 23.3% 3968 03-30-15
133 Sonic Singularity 23.2% 3970 03-30-15
134 Pokemonmaster888 23.1% 3979 03-30-15
135 SeaWolf 23.0% 3983 03-30-15
136 timpkmn89 22.7% 4000 03-30-15
137 Swift Hobo 22.6% 4004 03-30-15
138 Rickyman48 22.2% 4024 03-30-15
139 Sondow 22.0% 4036 03-30-15
140 FoxBoy 21.3% 4071 03-30-15
140 KitsuneYamaro 21.3% 4071 03-30-15
142 TFEC Headshot 21.1% 4079 03-30-15
143 Kogen Player Banned 20.7% 4100 03-30-15
144 Starlight Sable 20.1% 4134 03-30-15
145 IsisDazs 19.5% 4163 03-30-15
146 HyperSonic64 19.4% 4170 03-30-15
147 crazy1993 18.9% 4196 03-30-15
148 andres430 18.7% 4207 03-30-15
149 MPit08 17.4% 4271 03-30-15
149 SonicAD 17.4% 4271 03-30-15
151 sonicd5 17.3% 4278 03-30-15
152 dShadow 16.7% 4306 03-30-15
152 iSonicKid2K 16.7% 4306 03-30-15
154 Miles9999 16.1% 4337 03-30-15
155 Cutiefox 16.0% 4342 03-30-15
156 Chawkk 16.0% 4343 03-30-15
157 BigAL49 16.0% 4345 03-30-15
158 Monkeh 15.7% 4361 03-30-15
159 DaDude 15.4% 4377 03-30-15
160 Drflash55 15.1% 4389 03-30-15
161 Yish 14.7% 4412 03-30-15
162 Bass 14.6% 4417 03-30-15
163 neaolas 14.5% 4423 03-30-15
164 Cruizer 14.3% 4432 03-30-15
164 UninspiredUsername 14.3% 4432 03-30-15
166 superiorsonic 14.3% 4433 03-30-15
167 zapp 14.1% 4441 03-30-15
168 gamefreak1292 13.9% 4455 03-30-15
169 Cooljay 13.2% 4487 03-30-15
170 SonicU260 12.9% 4504 03-30-15
171 Chaos_Overlord 12.9% 4506 03-30-15
172 ethmar 12.8% 4510 03-30-15
173 Valfore 12.4% 4530 03-30-15
174 GarnetPrincess 12.1% 4545 03-30-15
175 ShinigamiMachine 12.0% 4554 03-30-15
176 soniccoloursunleashed 11.9% 4557 03-30-15
177 Sonicsuperstar1 11.5% 4578 03-30-15
178 FocusSight64 11.1% 4600 03-30-15
179 booo95 10.9% 4607 03-30-15
180 SirTobbii 10.9% 4608 03-30-15
181 Werey 10.9% 4610 03-30-15
182 Mo Player Banned 10.6% 4626 03-30-15
183 sonicspeed 10.4% 4633 03-30-15
184 Venick409 10.0% 4657 03-30-15
185 Sithwarrior26 9.6% 4676 03-30-15
186 ingx24 9.2% 4695 03-30-15
187 CyberShadow 9.0% 4706 03-30-15
188 Fozer 8.7% 4720 03-30-15
189 Colomb_30 8.6% 4729 03-30-15
190 Regano1000 8.3% 4741 03-30-15
191 1stKirbyever 8.0% 4757 03-30-15
192 Brian_pso 7.8% 4770 03-30-15
193 nuckrieg 7.6% 4777 03-30-15
194 douglas 7.5% 4786 03-30-15
195 Th4tN1nj4Turtl3 7.4% 4789 03-30-15
196 TakaRikka 7.4% 4790 03-30-15
197 Zip 7.4% 4792 03-30-15
198 Mariosonic15 7.1% 4807 03-30-15
199 wheatrich 6.9% 4813 03-30-15
200 MStitomix 6.8% 4823 03-30-15
201 ieatatsonic 6.7% 4827 03-30-15
202 HermitHelmet 6.6% 4829 03-30-15
203 niscool 6.4% 4839 03-30-15
204 Cort_pso 6.4% 4842 03-30-15
204 Got4n 6.4% 4842 03-30-15
206 Triseena 6.4% 4843 03-30-15
207 Jose_15 6.1% 4858 03-30-15
208 Artie 5.9% 4868 03-30-15
209 BlankTH 5.8% 4870 03-30-15
210 SuperSonicfan9595 5.6% 4885 03-30-15
211 Ace747 5.5% 4886 03-30-15
212 Richied 5.5% 4889 03-30-15
213 Paixii 5.2% 4901 03-30-15
214 BallzeH 4.9% 4918 03-30-15
214 FSSRandomvids 4.9% 4918 03-30-15
214 slade23 4.9% 4918 03-30-15
217 ArcticDragon 4.9% 4919 03-30-15
218 Mankster101 4.8% 4923 03-30-15
219 PsyBorg 4.8% 4925 03-30-15
220 BecauseWarAnvil 4.8% 4926 03-30-15
221 Jamixesa 4.7% 4927 03-30-15
222 Crydio 4.6% 4933 03-30-15
223 Nickson98 4.6% 4935 03-30-15
224 TheUltraBlur 4.4% 4944 03-30-15
225 ReuelBrony 4.4% 4945 03-30-15
226 stanski 4.3% 4951 03-30-15
227 MarewBFN 4.2% 4954 03-30-15
228 tal39h 4.1% 4958 03-30-15
229 Blue Infamy 4.0% 4968 03-30-15
229 knuckles_sonic8 4.0% 4968 03-30-15
229 p0ker 4.0% 4968 03-30-15
232 ErrortheCucco 3.8% 4978 03-30-15
233 Rikum22 3.7% 4981 03-30-15
234 sonic1001 3.5% 4989 03-30-15
235 TheChaosEmeraIds 3.5% 4990 03-30-15
236 syco1098 3.4% 4996 03-30-15
237 AJSIV 3.4% 4998 03-30-15
238 Sonic the Hedgehod16 3.3% 5000 03-30-15
239 sonicfan9 3.3% 5003 03-30-15
240 Calfd 3.3% 5004 03-30-15
241 HHNNBBHHN 3.0% 5016 03-30-15
242 themachoman202 2.9% 5021 03-30-15
243 MK 2.9% 5023 03-30-15
244 Fivavoa 2.8% 5029 03-30-15
245 BlackArmsShadow 2.8% 5030 03-30-15
246 Mr. Jones 2.7% 5031 03-30-15
247 djmat 2.7% 5032 03-30-15
247 ptorflaxendrosis 2.7% 5032 03-30-15
249 arcfx1985 2.7% 5033 03-30-15
250 FlandreScarlet9999vr 2.6% 5037 03-30-15
250 Sonique Hedgehog 2.6% 5037 03-30-15
252 KaM Mark MaK 2.4% 5046 03-30-15
253 BeeAwwb 2.4% 5050 03-30-15
254 ShadouZaHejjihoggu 2.3% 5053 03-30-15
255 darkstarblaze 2.2% 5061 03-30-15
256 darkersupershadic 2.1% 5062 03-30-15
257 SpiritDragon1995 2.1% 5063 03-30-15
258 sonic29887 2.1% 5065 03-30-15
259 Sarger001 2.0% 5067 03-30-15
260 Grady219 2.0% 5068 03-30-15
261 Jawaah 1.9% 5072 03-30-15
262 shadowblast63 Player Banned 1.9% 5073 03-30-15
263 Antek 1.9% 5076 03-30-15
264 Klaus 1.8% 5078 03-30-15
265 BioShadow 1.7% 5083 03-30-15
266 SkyBon 1.5% 5097 03-30-15
267 Shanekilz 1.4% 5099 03-30-15
268 isaihtb11 1.3% 5104 03-30-15
269 OhNoes! 1.3% 5105 03-30-15
270 zaktu40 1.3% 5106 03-30-15
271 gaara1234 1.2% 5109 03-30-15
272 S-MS32X-S 1.2% 5110 03-30-15
273 MastaToken 1.1% 5116 03-30-15
274 Mister_Slick 1.0% 5120 03-30-15
275 Sonic06Fan 1.0% 5122 03-30-15
276 Rush Hero 1.0% 5123 03-30-15
277 SonicMega167 0.9% 5126 03-30-15
278 gamed00d 0.8% 5129 03-30-15
278 SilverK 0.8% 5129 03-30-15
280 oTaiIilLsS 0.8% 5131 03-30-15
281 Egor305 0.7% 5138 03-30-15
282 Burningskull123 0.5% 5145 03-30-15
283 Heroes_Hater 0.5% 5147 03-30-15
284 Sonicontherun 0.3% 5155 03-30-15
285 antiwwe 0.2% 5161 03-30-15
286 Iwannabelink 0.2% 5164 03-30-15
287 Genuine Hedgehog 0.1% 5165 03-30-15
288 dragondragon18 0.1% 5168 03-30-15
289 SonicK100 0.1% 5169 03-30-15
290 Tyrouble 0.0% 5174 03-30-15
291 LancexExWx 0.0% 5175 03-30-15
291 neji_hyuuga 0.0% 5175 03-30-15
291 Over 0.0% 5175 03-30-15
291 sdj6707 Player Banned 0.0% 5175 03-30-15
291 Tran Sonic Fan Player Banned 0.0% 5175 03-30-15

This page is using the New Data Table System. [FUTURE]

Game ID: 3 | Category ID: 1
Hits: 7,224 | Hits This Month: 70 | DB Calls: 24 | Mem Usage: 5.44 MB | Time: 0.12s | Printable

The Sonic Center v3.9
Copyright 2003-2011 by The Sonic Center Team.